createdAt,value
2018-07-06T00:09:16.980Z,55.60
2018-07-06T00:19:38.535Z,55.60
2018-07-06T00:29:59.749Z,55.60
2018-07-06T00:40:21.547Z,55.60
2018-07-06T00:50:42.955Z,55.70
2018-07-06T01:01:04.667Z,55.60
2018-07-06T01:11:26.140Z,55.60
2018-07-06T01:21:47.434Z,55.80
2018-07-06T01:32:08.739Z,56.10
2018-07-06T01:42:30.299Z,56.30
2018-07-06T01:52:51.984Z,56.40
2018-07-06T02:03:13.884Z,56.70
2018-07-06T02:13:35.330Z,56.90
2018-07-06T02:23:56.715Z,56.90
2018-07-06T02:34:18.314Z,56.90
2018-07-06T02:44:39.732Z,57.00
2018-07-06T02:55:01.080Z,57.00
2018-07-06T03:05:22.704Z,56.90
2018-07-06T03:15:44.219Z,57.00
2018-07-06T03:26:05.660Z,57.00
2018-07-06T03:36:27.130Z,57.00
2018-07-06T03:46:48.535Z,57.10
2018-07-06T03:57:10.210Z,57.50
2018-07-06T04:07:31.750Z,57.10
2018-07-06T04:17:53.303Z,57.10
2018-07-06T04:28:15.278Z,57.10
2018-07-06T04:38:36.623Z,57.10
2018-07-06T04:48:57.994Z,57.20
2018-07-06T04:59:19.560Z,57.20
2018-07-06T05:09:41.085Z,57.20
2018-07-06T05:20:02.444Z,57.30
2018-07-06T05:30:23.864Z,57.40
2018-07-06T05:40:45.238Z,57.30
2018-07-06T05:51:06.727Z,57.40
2018-07-06T06:01:28.308Z,57.30
2018-07-06T06:11:33.728Z,57.40
2018-07-06T06:21:38.499Z,57.40
2018-07-06T06:31:43.420Z,57.40
2018-07-06T06:41:48.168Z,57.30
2018-07-06T06:51:53.150Z,57.50
2018-07-06T07:01:57.928Z,57.50
2018-07-06T07:12:02.810Z,57.50
2018-07-06T07:22:07.570Z,57.40
2018-07-06T07:32:12.372Z,57.50
2018-07-06T07:42:17.261Z,57.40
2018-07-06T07:52:38.824Z,57.50
2018-07-06T08:02:44.318Z,57.50
2018-07-06T08:12:49.076Z,57.60
2018-07-06T08:22:53.896Z,57.60
2018-07-06T08:32:58.760Z,57.60
2018-07-06T08:43:05.051Z,57.60
2018-07-06T08:53:09.763Z,57.60
2018-07-06T09:03:14.532Z,58.30
2018-07-06T09:13:19.313Z,57.40
2018-07-06T09:23:24.699Z,57.70
2018-07-06T09:33:29.642Z,57.50
2018-07-06T09:43:34.494Z,57.60
2018-07-06T09:53:39.470Z,57.60
2018-07-06T10:03:44.235Z,57.50
2018-07-06T10:13:49.118Z,57.70
2018-07-06T10:23:54.009Z,57.50
2018-07-06T10:33:58.701Z,57.50
2018-07-06T10:44:04.214Z,57.50
2018-07-06T10:54:08.934Z,57.50
2018-07-06T11:04:13.768Z,57.60
2018-07-06T11:14:18.813Z,57.60
2018-07-06T11:24:23.711Z,57.50
2018-07-06T11:34:28.479Z,57.50
2018-07-06T11:44:33.139Z,57.60
2018-07-06T11:54:37.891Z,57.60
2018-07-06T12:04:42.637Z,57.60
2018-07-06T12:14:47.962Z,57.50
2018-07-06T12:24:52.574Z,57.60
2018-07-06T12:34:57.307Z,57.60
2018-07-06T12:45:02.140Z,57.60
2018-07-06T12:55:06.845Z,57.60
2018-07-06T13:05:11.652Z,57.70
2018-07-06T13:15:16.455Z,57.70
2018-07-06T13:25:21.315Z,57.70
2018-07-06T13:35:25.978Z,57.70
2018-07-06T13:45:30.718Z,57.70
2018-07-06T14:05:40.221Z,57.80
2018-07-06T14:15:45.200Z,57.80
2018-07-06T14:25:50.026Z,57.80
2018-07-06T14:35:54.928Z,57.80
2018-07-06T14:45:59.541Z,57.80
2018-07-06T14:56:04.189Z,57.80
2018-07-06T15:06:08.853Z,57.80
2018-07-06T15:16:13.732Z,57.80
2018-07-06T15:26:18.537Z,58.20
2018-07-06T15:36:23.414Z,57.80
2018-07-06T15:46:28.283Z,57.80
2018-07-06T15:56:33.496Z,58.40
2018-07-06T16:06:38.361Z,57.80
2018-07-06T16:16:43.358Z,57.70
2018-07-06T16:26:48.168Z,57.80
2018-07-06T16:36:53.860Z,57.70
2018-07-06T16:46:58.600Z,57.80
2018-07-06T16:57:03.193Z,57.80
2018-07-06T17:07:08.969Z,57.80
2018-07-06T17:17:14.036Z,57.80
2018-07-06T17:27:18.811Z,57.80
2018-07-06T17:37:23.407Z,57.90
2018-07-06T17:47:28.192Z,57.90
2018-07-06T17:57:34.040Z,57.90
2018-07-06T18:07:38.824Z,57.80
2018-07-06T18:17:43.832Z,57.80
2018-07-06T18:27:48.900Z,57.80
2018-07-06T18:37:53.732Z,57.90
2018-07-06T18:47:58.458Z,57.90
2018-07-06T18:58:03.498Z,57.90
2018-07-06T19:08:08.134Z,57.90
2018-07-06T19:18:13.174Z,57.90
2018-07-06T19:28:18.063Z,57.90
2018-07-06T19:38:22.843Z,57.90
2018-07-06T19:48:27.639Z,57.90
2018-07-06T19:58:32.452Z,57.90
2018-07-06T20:08:37.165Z,57.90
2018-07-06T20:18:42.251Z,58.00
2018-07-06T20:28:47.862Z,58.00
2018-07-06T20:38:52.735Z,58.60
2018-07-06T20:48:58.327Z,58.00
2018-07-06T20:59:04.670Z,58.00
2018-07-06T21:09:09.438Z,58.00
2018-07-06T21:19:14.247Z,58.00
2018-07-06T21:29:18.929Z,58.00
2018-07-06T21:39:23.860Z,58.00
2018-07-06T21:49:28.643Z,58.00
2018-07-06T22:09:38.301Z,58.00
2018-07-06T22:19:43.081Z,58.10
2018-07-06T22:29:47.976Z,58.10
2018-07-06T22:49:59.375Z,58.00
2018-07-06T23:00:04.122Z,58.00
2018-07-06T23:10:08.771Z,58.00
2018-07-06T23:20:13.499Z,58.00
2018-07-06T23:30:18.289Z,58.00
2018-07-06T23:40:23.275Z,58.10
